Latest Weather Observations for Latrobe Valley

IDV60801

Issued at 9:05 am EST Tuesday 2 September 2014 (issued every 30 minutes, with the page automatically refreshed every 10 minutes)

About weather observations | Map of weather stations | Latest weather observations for VIC | Other Formats
Station Details ID: 085280 Name: LATROBE VALLEY AIRPORT Lat: -38.21 Lon: 146.47 Height: 55.7 m
Data from the previous 72 hours. | See also: Recent months at Latrobe Valley
Date/Time
EST
Temp
°C
App
Temp
°C
Dew
Point
Rel
Hum
%
Delta-T
°C
Wind Press
QNH
hPa
Press
MSL
hPa
Rain
since 9 am
mm
Dir
 
Spd
km/h
Gust
km/h
Spd
kts
Gust
kts
02/09:00am 11.4 7.9 10.3 93 0.6 W 19 22 10 12 1016.1 1016.1 4.8
02/08:30am 10.2 6.6 9.7 97 0.3 WNW 19 24 10 13 1015.6 1015.6 4.8
02/08:00am 9.1 5.7 9.1 100 0.0 WNW 17 22 9 12 1015.4 1015.4 4.8
02/07:30am 7.7 3.6 7.7 100 0.0 W 19 22 10 12 1014.9 1014.9 4.8
02/07:00am 7.7 3.9 7.7 100 0.0 W 17 20 9 11 1014.6 1014.6 4.8
02/06:30am 7.7 3.6 7.7 100 0.0 W 19 24 10 13 1014.1 1014.1 4.8
02/06:00am 8.1 3.1 8.1 100 0.0 W 24 32 13 17 1013.7 1013.7 4.8
02/05:30am 8.3 4.3 8.3 100 0.0 W 19 22 10 12 1013.1 1013.2 4.8
02/05:00am 8.4 4.8 8.4 100 0.0 W 17 24 9 13 1012.7 1012.8 4.8
02/04:30am 8.6 5.4 8.6 100 0.0 W 15 19 8 10 1012.4 1012.5 4.8
02/04:00am 9.0 5.2 9.0 100 0.0 W 19 22 10 12 1012.3 1012.4 4.8
02/03:30am 8.9 5.8 8.9 100 0.0 W 15 19 8 10 1012.2 1012.3 4.6
02/03:00am 9.3 5.9 9.3 100 0.0 WNW 17 20 9 11 1012.1 1012.2 4.6
02/02:30am 9.4 6.4 9.4 100 0.0 WNW 15 20 8 11 1011.9 1012.0 4.6
02/02:29am 9.4 6.4 9.4 100 0.0 W 15 20 8 11 1011.9 1012.0 4.6
02/02:00am 9.7 6.4 9.7 100 0.0 W 17 22 9 12 1011.9 1012.0 4.6
02/01:50am 9.7 6.8 9.7 100 0.0 WSW 15 20 8 11 1011.8 1011.9 4.6
02/01:30am 9.6 5.7 9.6 100 0.0 W 20 28 11 15 1011.6 1011.7 4.6
02/01:00am 9.8 6.0 9.8 100 0.0 WNW 20 30 11 16 1011.5 1011.6 4.6
02/12:30am 9.7 5.9 9.7 100 0.0 WNW 20 24 11 13 1011.4 1011.5 4.6
02/12:00am 9.8 5.6 9.8 100 0.0 W 22 28 12 15 1011.3 1011.4 4.6
 
Date/Time
EST
Temp
°C
App
Temp
°C
Dew
Point
Rel
Hum
%
Delta-T
°C
Wind Press
QNH
hPa
Press
MSL
hPa
Rain
since 9 am
mm
Dir
 
Spd
km/h
Gust
km/h
Spd
kts
Gust
kts
01/11:30pm 10.0 6.3 10.0 100 0.0 W 20 24 11 13 1011.0 1011.1 4.6
01/11:00pm 10.1 6.4 10.1 100 0.0 W 20 28 11 15 1011.0 1011.1 4.6
01/10:30pm 10.0 6.3 10.0 100 0.0 W 20 28 11 15 1011.3 1011.4 4.6
01/10:00pm 9.9 6.7 9.9 100 0.0 WNW 17 22 9 12 1011.0 1011.1 4.6
01/09:30pm 9.9 7.5 9.9 100 0.0 WNW 13 19 7 10 1010.9 1011.0 4.6
01/09:14pm 10.0 7.2 10.0 100 0.0 WNW 15 19 8 10 1010.7 1010.8 4.6
01/09:04pm 10.0 7.2 10.0 100 0.0 WNW 15 19 8 10 1010.8 1010.9 4.6
01/09:00pm 10.0 7.2 10.0 100 0.0 WNW 15 17 8 9 1010.7 1010.8 4.6
01/08:30pm 9.9 7.1 9.9 100 0.0 WNW 15 20 8 11 1010.6 1010.7 4.4
01/08:00pm 10.0 6.8 10.0 100 0.0 WNW 17 20 9 11 1010.4 1010.5 4.2
01/07:30pm 10.2 7.5 10.2 100 0.0 W 15 20 8 11 1010.3 1010.4 3.8
01/07:00pm 10.2 7.5 10.2 100 0.0 WNW 15 20 8 11 1009.9 1010.0 3.4
01/06:30pm 10.3 7.6 10.3 100 0.0 NW 15 17 8 9 1009.4 1009.5 3.4
01/06:00pm 10.4 7.3 10.4 100 0.0 WNW 17 20 9 11 1009.3 1009.4 3.2
01/05:30pm 11.0 7.7 11.0 100 0.0 W 19 26 10 14 1009.0 1009.1 2.8
01/05:00pm 11.5 9.1 11.5 100 0.0 W 15 19 8 10 1008.6 1008.7 2.2
01/04:30pm 11.6 8.9 11.6 100 0.0 W 17 22 9 12 1008.4 1008.5 2.2
01/04:00pm 11.6 8.2 11.4 99 0.1 W 20 26 11 14 1008.2 1008.3 1.4
01/03:30pm 11.9 8.5 11.4 97 0.3 W 20 28 11 15 1008.1 1008.2 1.2
01/03:00pm 11.9 7.7 11.0 94 0.5 W 24 32 13 17 1007.8 1007.9 0.8
01/02:30pm 12.4 6.4 10.1 86 1.2 W 32 43 17 23 1007.6 1007.7 0.2
01/02:00pm 14.5 8.0 8.2 66 3.2 W 32 46 17 25 1007.2 1007.2 0.0
01/01:30pm 17.0 10.4 7.9 55 4.6 W 32 44 17 24 1006.8 1006.8 0.0
01/01:00pm 16.9 9.9 6.7 51 5.1 W 33 46 18 25 1006.8 1006.8 0.0
01/12:30pm 17.1 11.7 8.0 55 4.6 W 26 35 14 19 1006.9 1006.9 0.0
01/12:00pm 17.8 13.9 8.6 55 4.8 W 19 24 10 13 1007.1 1007.1 0.0
01/11:30am 18.0 14.7 9.4 57 4.5 WSW 17 22 9 12 1007.2 1007.2 0.0
01/11:00am 17.7 14.8 8.3 54 4.8 W 13 22 7 12 1007.6 1007.7 0.0
01/10:30am 16.8 16.0 10.9 68 3.2 NE 6 9 3 5 1007.8 1007.9 0.0
01/10:00am 16.8 15.0 7.2 53 4.8 S 6 13 3 7 1007.9 1008.0 0.0
01/09:30am 16.4 12.9 7.3 55 4.5 NE 15 19 8 10 1008.1 1008.2 0.0
01/09:00am 16.4 12.0 7.3 55 4.6 N 20 26 11 14 1008.2 1008.3 0.0
01/08:30am 15.0 12.1 8.3 64 3.4 ENE 13 17 7 9 1008.3 1008.4 0.0
01/08:00am 13.1 11.7 8.8 75 2.2 S 6 9 3 5 1009.1 1009.2 0.0
01/07:30am 14.3 11.9 7.1 62 3.5 E 9 15 5 8 1008.9 1009.0 0.0
01/07:00am 14.0 10.9 7.1 63 3.4 E 13 17 7 9 1008.4 1008.5 0.0
01/06:30am 10.8 9.0 9.6 92 0.6 SE 9 17 5 9 1008.8 1008.9 0.0
01/06:00am 9.6 8.2 9.5 99 0.0 N 7 13 4 7 1009.6 1009.7 0.0
01/05:30am 9.6 8.8 9.5 99 0.0 SSE 4 11 2 6 1009.2 1009.3 0.0
01/05:00am 9.8 9.3 9.3 97 0.2 N 2 6 1 3 1009.2 1009.3 0.0
01/04:30am 9.2 7.8 8.9 98 0.1 NNE 6 9 3 5 1009.4 1009.5 0.0
01/04:00am 9.2 8.9 8.6 96 0.3 CALM 0 7 0 4 1009.7 1009.8 0.0
01/03:30am 9.3 8.2 8.5 95 0.4 ENE 4 13 2 7 1010.0 1010.1 0.0
01/03:00am 9.4 7.9 8.3 93 0.5 NE 6 9 3 5 1010.1 1010.2 0.0
01/02:30am 9.5 7.2 7.6 88 0.9 W 9 13 5 7 1010.5 1010.6 0.0
01/02:00am 12.0 11.1 7.7 75 2.1 E 2 7 1 4 1010.5 1010.6 0.0
01/01:30am 12.1 10.0 8.2 77 1.9 E 9 15 5 8 1010.4 1010.5 0.0
01/01:00am 12.2 10.1 8.3 77 1.9 E 9 13 5 7 1010.7 1010.8 0.0
01/12:30am 12.5 10.5 8.6 77 1.9 E 9 15 5 8 1010.9 1011.0 0.0
01/12:00am 11.5 10.2 9.2 86 1.2 ENE 6 9 3 5 1011.6 1011.7 0.0
 
Date/Time
EST
Temp
°C
App
Temp
°C
Dew
Point
Rel
Hum
%
Delta-T
°C
Wind Press
QNH
hPa
Press
MSL
hPa
Rain
since 9 am
mm
Dir
 
Spd
km/h
Gust
km/h
Spd
kts
Gust
kts
31/11:30pm 12.3 10.4 9.0 80 1.7 E 9 13 5 7 1012.2 1012.3 0.0
31/11:00pm 13.1 11.2 9.0 76 2.1 E 9 15 5 8 1012.7 1012.8 0.0
31/10:30pm 13.5 11.3 9.2 75 2.2 ESE 11 17 6 9 1013.3 1013.3 0.0
31/10:00pm 13.7 11.5 9.2 74 2.3 E 11 15 6 8 1013.6 1013.6 0.0
31/09:30pm 12.8 11.0 9.3 79 1.8 E 9 13 5 7 1014.0 1014.0 0.0
31/09:00pm 13.5 11.8 9.7 78 2.0 E 9 11 5 6 1014.2 1014.2 0.0
31/08:30pm 13.9 11.9 10.1 78 2.0 E 11 13 6 7 1014.3 1014.3 0.0
31/08:00pm 14.5 13.6 11.5 82 1.6 E 7 9 4 5 1014.5 1014.5 0.0
31/07:30pm 14.7 14.4 12.7 88 1.1 E 6 9 3 5 1014.6 1014.6 0.0
31/07:00pm 15.0 14.7 13.2 89 1.0 NE 7 11 4 6 1014.6 1014.6 0.0
31/06:30pm 14.8 13.4 12.3 85 1.4 NE 11 13 6 7 1014.5 1014.5 0.0
31/06:00pm 15.5 14.5 12.4 82 1.7 NE 9 11 5 6 1014.3 1014.3 0.0
31/05:30pm 16.1 15.2 11.5 74 2.5 NE 7 9 4 5 1014.1 1014.1 0.0
31/05:00pm 17.3 16.3 12.2 72 2.8 NNE 9 11 5 6 1014.0 1014.0 0.0
31/04:30pm 19.4 18.6 12.9 66 3.7 NE 9 11 5 6 1014.0 1014.0 0.0
31/04:00pm 19.7 19.1 11.7 60 4.4 NE 6 7 3 4 1014.1 1014.1 0.0
31/03:30pm 20.6 20.2 12.3 59 4.7 NNE 6 7 3 4 1014.3 1014.3 0.0
31/03:00pm 19.9 19.4 12.7 63 4.1 NE 7 11 4 6 1014.7 1014.7 0.0
31/02:30pm 20.8 20.8 13.5 63 4.2 ENE 6 11 3 6 1015.0 1015.0 0.0
31/02:00pm 20.2 19.4 12.9 63 4.1 NE 9 11 5 6 1015.2 1015.2 0.0
31/01:30pm 20.0 20.2 13.2 65 3.9 NNE 4 11 2 6 1015.7 1015.8 0.0
31/01:00pm 19.5 19.2 13.2 67 3.6 ESE 7 11 4 6 1016.0 1016.1 0.0
31/12:30pm 18.8 18.1 12.1 65 3.7 ENE 7 9 4 5 1016.5 1016.6 0.0
31/12:00pm 18.0 17.8 12.9 72 2.9 ENE 6 9 3 5 1017.3 1017.4 0.0
31/11:30am 16.1 16.1 12.5 79 2.0 SE 4 7 2 4 1017.9 1018.0 0.0
31/11:00am 13.8 14.6 13.8 100 0.0 NNE 2 9 1 5 1018.4 1018.5 0.0
31/10:30am 11.9 12.5 11.9 100 0.0 CALM 0 0 0 0 1018.8 1018.9 0.0
31/10:14am 11.1 11.1 11.1 100 0.0 W 2 6 1 3 1019.1 1019.2 0.0
31/10:08am 11.1 11.1 11.1 100 0.0 SW 2 7 1 4 1019.2 1019.3 0.0
31/10:00am 10.3 10.4 10.3 100 0.0 CALM 0 6 0 3 1019.3 1019.4 0.0
31/09:30am 9.0 8.8 9.0 100 0.0 CALM 0 0 0 0 1019.6 1019.7 0.0
31/09:00am 8.4 8.0 8.4 100 0.0 CALM 0 6 0 3 1019.8 1019.9 0.2
31/08:30am 7.6 6.3 7.6 100 0.0 SSW 4 6 2 3 1020.0 1020.1 0.2
31/08:00am 7.2 6.2 7.2 100 0.0 S 2 6 1 3 1020.1 1020.2 0.2
31/07:30am 6.8 4.9 6.8 100 0.0 WSW 6 9 3 5 1020.3 1020.4 0.2
31/07:00am 6.4 4.4 6.4 100 0.0 W 6 7 3 4 1020.0 1020.1 0.2
31/06:30am 6.3 5.5 6.3 100 0.0 CALM 0 0 0 0 1019.7 1019.8 0.2
31/06:00am 6.2 4.2 6.2 100 0.0 SW 6 6 3 3 1019.7 1019.8 0.2
31/05:30am 6.5 4.4 6.5 100 0.0 S 7 9 4 5 1019.7 1019.8 0.2
31/05:00am 6.4 4.2 6.4 100 0.0 S 7 9 4 5 1019.6 1019.7 0.2
31/04:30am 6.1 4.8 6.1 100 0.0 S 2 6 1 3 1019.6 1019.7 0.2
31/04:00am 5.8 3.5 5.8 100 0.0 SSW 7 9 4 5 1019.7 1019.8 0.2
31/03:30am 7.2 5.8 7.2 100 0.0 E 4 6 2 3 1019.8 1019.9 0.0
31/03:00am 6.1 5.2 6.1 100 0.0 CALM 0 0 0 0 1020.0 1020.1 0.0
31/02:30am 4.5 3.3 4.5 100 0.0 CALM 0 0 0 0 1020.3 1020.4 0.0
31/02:00am 4.1 2.8 4.1 100 0.0 CALM 0 4 0 2 1020.5 1020.6 0.0
31/01:57am 4.1 2.4 4.1 100 0.0 E 2 7 1 4 1020.5 1020.6 0.0
31/01:51am 4.8 2.5 4.8 100 0.0 E 6 7 3 4 1020.6 1020.7 0.0
31/01:47am 4.7 2.4 4.7 100 0.0 ENE 6 7 3 4 1020.6 1020.7 0.0
31/01:30am 4.5 3.3 4.5 100 0.0 CALM 0 0 0 0 1020.9 1021.0 0.0
31/01:28am 4.5 3.3 4.5 100 0.0 CALM 0 0 0 0 1020.9 1021.0 0.0
31/01:00am 5.3 4.2 5.3 100 0.0 CALM 0 0 0 0 1021.2 1021.3 0.0
31/12:30am 6.7 4.8 6.7 100 0.0 NE 6 7 3 4 1021.6 1021.7 0.0
31/12:13am 6.5 4.6 6.5 100 0.0 NE 6 9 3 5 1021.8 1021.9 0.0
31/12:00am 6.4 5.6 6.4 100 0.0 CALM 0 0 0 0 1022.0 1022.1 0.0
 
Date/Time
EST
Temp
°C
App
Temp
°C
Dew
Point
Rel
Hum
%
Delta-T
°C
Wind Press
QNH
hPa
Press
MSL
hPa
Rain
since 9 am
mm
Dir
 
Spd
km/h
Gust
km/h
Spd
kts
Gust
kts
30/11:30pm 6.5 5.7 6.5 100 0.0 CALM 0 0 0 0 1022.4 1022.5 0.0
30/11:00pm 5.9 5.0 5.9 100 0.0 CALM 0 0 0 0 1022.6 1022.7 0.0
30/10:43pm 6.6 5.8 6.6 100 0.0 CALM 0 0 0 0 1022.7 1022.8 0.0
30/10:30pm 6.9 6.2 6.9 100 0.0 CALM 0 0 0 0 1022.8 1022.9 0.0
30/10:00pm 7.1 6.0 7.1 100 0.0 W 2 6 1 3 1023.2 1023.3 0.0
30/09:30pm 7.9 7.4 7.8 99 0.0 CALM 0 0 0 0 1023.3 1023.4 0.0
30/09:00pm 9.1 7.6 9.0 99 0.0 E 7 9 4 5 1023.2 1023.3 0.0
30/08:30pm 8.9 7.4 8.5 97 0.2 ENE 6 7 3 4 1023.3 1023.4 0.0
30/08:00pm 9.1 7.5 8.0 93 0.5 NE 6 7 3 4 1023.4 1023.5 0.0
30/07:30pm 10.1 8.5 8.2 88 0.9 ENE 6 7 3 4 1023.4 1023.5 0.0
30/07:00pm 10.8 8.8 8.6 86 1.1 ENE 9 13 5 7 1023.4 1023.5 0.0
30/06:30pm 11.1 8.3 8.5 84 1.3 NE 13 17 7 9 1023.4 1023.5 0.0
30/06:00pm 12.0 9.1 8.3 78 1.8 NE 13 19 7 10 1023.2 1023.3 0.0
30/05:30pm 13.7 10.4 8.1 69 2.8 ENE 15 22 8 12 1023.0 1023.1 0.0
30/05:00pm 14.8 12.0 8.5 66 3.2 ENE 13 20 7 11 1022.9 1023.0 0.0
30/04:30pm 15.4 11.3 7.7 60 3.8 NE 19 24 10 13 1022.8 1022.9 0.0
30/04:00pm 15.9 11.8 7.9 59 4.0 ENE 19 28 10 15 1022.7 1022.8 0.0
30/03:30pm 16.1 11.7 7.3 56 4.4 NE 20 24 11 13 1022.8 1022.9 0.0
30/03:00pm 16.3 12.1 7.3 55 4.5 ENE 19 28 10 15 1023.0 1023.1 0.0
30/02:30pm 16.4 12.6 9.1 62 3.8 ENE 19 26 10 14 1023.2 1023.3 0.0
30/02:00pm 16.3 12.9 9.3 63 3.6 ENE 17 26 9 14 1023.4 1023.5 0.0
30/01:30pm 16.1 12.2 9.3 64 3.5 ENE 20 32 11 17 1023.7 1023.8 0.0
30/01:00pm 16.0 12.4 9.7 66 3.3 ENE 19 28 10 15 1024.1 1024.2 0.0
30/12:30pm 15.2 11.1 8.0 62 3.6 ENE 19 28 10 15 1024.7 1024.8 0.0
30/12:00pm 15.4 11.7 10.2 71 2.7 ENE 20 30 11 16 1025.1 1025.2 0.0
30/11:30am 15.0 11.3 10.2 73 2.5 E 20 30 11 16 1025.9 1026.0 0.0
30/11:00am 14.2 10.5 9.6 74 2.4 ENE 19 30 10 16 1026.4 1026.5 0.0
30/10:30am 12.3 8.7 9.9 85 1.2 ENE 19 28 10 15 1026.8 1026.9 0.0
30/10:00am 11.5 9.1 11.5 100 0.0 NE 15 19 8 10 1027.2 1027.3 0.0
30/09:30am 10.2 7.8 10.2 100 0.0 ENE 13 19 7 10 1027.6 1027.7 0.0
30/09:15am 9.5 6.9 9.5 100 0.0 ENE 13 17 7 9 1027.7 1027.8 0.0

Other Formats:

Comma delimited format used in spreadsheet applications
http://www.bom.gov.au/fwo/IDV60801/IDV60801.94891.axf

JavaScript Object Notation format (JSON) in row-major order
http://www.bom.gov.au/fwo/IDV60801/IDV60801.94891.json